Biotrans — JWPN — position and weather

sailwx.info

Track history (hours):
 
Tides and Currents Weather Stations Pressure Air Temp Water Temp Dewpoint Dewpoint Depression Visibility Wind Speed Wind Dir Waves Ship Positions

Biotrans

Last reported at 2016-Feb-08 19:22 UTC. Time now 2016-Feb-10 12:57 UTC.
Position N 69°19' E 018°01'.

Length 55 m; draft 5.5 m.

Type: Cargo ship. MMSI: 259260000.

Date/timePositionNaut miles runAvg speedWind from/ knotsBaromVisibWave heightAir tempDewpointWater temp
2016-Feb-08 19:22N 69°19' E 018°01'7 9.0
2016-Feb-08 18:33N 69°12' E 018°00'9 9.2
2016-Feb-08 17:33N 69°07' E 017°39'6 6.2
2016-Feb-08 16:33N 69°04' E 017°23'107 3.8
2016-Feb-07 12:23N 67°38' E 014°35'810.1
2016-Feb-07 11:33N 67°40' E 014°57'4 0.4
2016-Feb-07 00:09N 67°35' E 014°57'6 9.5
2016-Feb-06 23:33N 67°32' E 014°44'9 9.4
2016-Feb-06 22:33N 67°25' E 014°29'10 9.5
2016-Feb-06 21:33N 67°17' E 014°15'9 9.4
2016-Feb-06 20:33N 67°09' E 014°02'1 0.6
2016-Feb-06 19:33N 67°09' E 014°00'3 3.0
2016-Feb-06 18:33N 67°07' E 013°54'0 0.0
2016-Feb-06 17:33N 67°07' E 013°54'7 7.0
2016-Feb-06 16:33N 67°01' E 013°44'9 8.7
2016-Feb-06 15:32N 66°55' E 013°29'28 9.4
2016-Feb-06 12:33N 66°29' E 012°59'1010.1
2016-Feb-06 11:33N 66°19' E 012°57'62 4.7
2016-Feb-05 22:18N 65°21' E 012°03'710.0
2016-Feb-05 21:33N 65°15' E 011°55'1010.0
2016-Feb-05 20:33N 65°05' E 011°47'10 9.7
2016-Feb-05 19:33N 64°58' E 011°32'10 9.9
2016-Feb-05 18:33N 64°51' E 011°14'8 7.8
2016-Feb-05 17:33N 64°44' E 011°08'2 1.7
2016-Feb-05 16:33N 64°45' E 011°12'0 0.0
2016-Feb-05 15:33N 64°45' E 011°12'0 0.0
2016-Feb-05 14:33N 64°45' E 011°12'0 0.0
2016-Feb-05 13:33N 64°45' E 011°12'3 2.7
2016-Feb-05 12:33N 64°44' E 011°06'76 6.3
2016-Feb-05 00:33N 63°43' E 009°20'9 9.4
2016-Feb-04 23:33N 63°36' E 009°05'2 0.8
2016-Feb-04 20:29N 63°37' E 008°60'6 6.6
2016-Feb-04 19:33N 63°41' E 009°11'9 0.6
2016-Feb-04 04:05N 63°40' E 008°50'5 8.8
2016-Feb-04 03:33N 63°42' E 008°60'9 8.9
2016-Feb-04 02:33N 63°43' E 009°19'9 8.8
2016-Feb-04 01:33N 63°45' E 009°39'3 3.1
2016-Feb-04 00:33N 63°46' E 009°46'0 0.0
2016-Feb-03 23:33N 63°46' E 009°46'0 0.0
2016-Feb-03 22:33N 63°46' E 009°46'0 0.0
2016-Feb-03 21:33N 63°46' E 009°46'0 0.0
2016-Feb-03 20:33N 63°46' E 009°46'0 0.0
2016-Feb-03 19:33N 63°46' E 009°46'0 0.0
2016-Feb-03 18:33N 63°46' E 009°46'6 5.7
2016-Feb-03 17:33N 63°46' E 009°33'9 9.4
2016-Feb-03 16:33N 63°54' E 009°46'9 9.5
2016-Feb-03 15:33N 64°03' E 009°49'49 9.0
2016-Feb-03 10:04N 64°43' E 010°56'5 9.7
2016-Feb-03 09:33N 64°47' E 011°04'10 9.9
2016-Feb-03 08:33N 64°54' E 011°20'10 9.6
2016-Feb-03 07:33N 65°00' E 011°37'9 9.4
2016-Feb-03 06:33N 65°08' E 011°49'12 9.6
2016-Feb-03 05:20N 65°19' E 011°60'69 3.7
2016-Feb-02 10:33N 66°24' E 012°58'29 8.8
2016-Feb-02 07:18N 66°51' E 013°20'7 8.5
2016-Feb-02 06:31N 66°57' E 013°29'9 9.1
2016-Feb-02 05:33N 67°02' E 013°47'9 9.2
2016-Feb-02 04:33N 67°09' E 014°02'9 9.2
2016-Feb-02 03:33N 67°17' E 014°14'9 9.1
2016-Feb-02 02:33N 67°25' E 014°27'95 8.5
2016-Feb-01 15:25N 68°45' E 016°42'15 2.3
2016-Feb-01 09:07N 68°57' E 017°05'15 9.4
2016-Feb-01 07:33N 69°07' E 017°37'10 9.7
2016-Feb-01 06:33N 69°11' E 018°01'248 7.5
2016-Jan-30 21:21N 70°57' E 028°59'7 9.5
2016-Jan-30 20:33N 70°53' E 029°19'11 9.4
2016-Jan-30 19:26N 70°48' E 029°46'5 0.2
2016-Jan-29 22:23N 70°43' E 029°50'8 9.8
2016-Jan-29 21:33N 70°49' E 029°34'  
Track history (hours):
 
Tides and Currents Weather Stations Pressure Air Temp Water Temp Dewpoint Dewpoint Depression Visibility Wind Speed Wind Dir Waves Ship Positions

Biotrans

Last reported at 2016-Feb-08 19:22 UTC. Time now 2016-Feb-10 12:57 UTC.
Position N 69°19' E 018°01'.

Length 55 m; draft 5.5 m.

Type: Cargo ship. MMSI: 259260000.

Date/timePositionNaut miles runAvg speedWind from/ knotsBaromVisibWave heightAir tempDewpointWater temp
2016-Feb-08 19:22N 69°19' E 018°01'7 9.0
2016-Feb-08 18:33N 69°12' E 018°00'9 9.2
2016-Feb-08 17:33N 69°07' E 017°39'6 6.2
2016-Feb-08 16:33N 69°04' E 017°23'107 3.8
2016-Feb-07 12:23N 67°38' E 014°35'810.1
2016-Feb-07 11:33N 67°40' E 014°57'4 0.4
2016-Feb-07 00:09N 67°35' E 014°57'6 9.5
2016-Feb-06 23:33N 67°32' E 014°44'9 9.4
2016-Feb-06 22:33N 67°25' E 014°29'10 9.5
2016-Feb-06 21:33N 67°17' E 014°15'9 9.4
2016-Feb-06 20:33N 67°09' E 014°02'1 0.6
2016-Feb-06 19:33N 67°09' E 014°00'3 3.0
2016-Feb-06 18:33N 67°07' E 013°54'0 0.0
2016-Feb-06 17:33N 67°07' E 013°54'7 7.0
2016-Feb-06 16:33N 67°01' E 013°44'9 8.7
2016-Feb-06 15:32N 66°55' E 013°29'28 9.4
2016-Feb-06 12:33N 66°29' E 012°59'1010.1
2016-Feb-06 11:33N 66°19' E 012°57'62 4.7
2016-Feb-05 22:18N 65°21' E 012°03'710.0
2016-Feb-05 21:33N 65°15' E 011°55'1010.0
2016-Feb-05 20:33N 65°05' E 011°47'10 9.7
2016-Feb-05 19:33N 64°58' E 011°32'10 9.9
2016-Feb-05 18:33N 64°51' E 011°14'8 7.8
2016-Feb-05 17:33N 64°44' E 011°08'2 1.7
2016-Feb-05 16:33N 64°45' E 011°12'0 0.0
2016-Feb-05 15:33N 64°45' E 011°12'0 0.0
2016-Feb-05 14:33N 64°45' E 011°12'0 0.0
2016-Feb-05 13:33N 64°45' E 011°12'3 2.7
2016-Feb-05 12:33N 64°44' E 011°06'76 6.3
2016-Feb-05 00:33N 63°43' E 009°20'9 9.4
2016-Feb-04 23:33N 63°36' E 009°05'2 0.8
2016-Feb-04 20:29N 63°37' E 008°60'6 6.6
2016-Feb-04 19:33N 63°41' E 009°11'9 0.6
2016-Feb-04 04:05N 63°40' E 008°50'5 8.8
2016-Feb-04 03:33N 63°42' E 008°60'9 8.9
2016-Feb-04 02:33N 63°43' E 009°19'9 8.8
2016-Feb-04 01:33N 63°45' E 009°39'3 3.1
2016-Feb-04 00:33N 63°46' E 009°46'0 0.0
2016-Feb-03 23:33N 63°46' E 009°46'0 0.0
2016-Feb-03 22:33N 63°46' E 009°46'0 0.0
2016-Feb-03 21:33N 63°46' E 009°46'0 0.0
2016-Feb-03 20:33N 63°46' E 009°46'0 0.0
2016-Feb-03 19:33N 63°46' E 009°46'0 0.0
2016-Feb-03 18:33N 63°46' E 009°46'6 5.7
2016-Feb-03 17:33N 63°46' E 009°33'9 9.4
2016-Feb-03 16:33N 63°54' E 009°46'9 9.5
2016-Feb-03 15:33N 64°03' E 009°49'49 9.0
2016-Feb-03 10:04N 64°43' E 010°56'5 9.7
2016-Feb-03 09:33N 64°47' E 011°04'10 9.9
2016-Feb-03 08:33N 64°54' E 011°20'10 9.6
2016-Feb-03 07:33N 65°00' E 011°37'9 9.4
2016-Feb-03 06:33N 65°08' E 011°49'12 9.6
2016-Feb-03 05:20N 65°19' E 011°60'69 3.7
2016-Feb-02 10:33N 66°24' E 012°58'29 8.8
2016-Feb-02 07:18N 66°51' E 013°20'7 8.5
2016-Feb-02 06:31N 66°57' E 013°29'9 9.1
2016-Feb-02 05:33N 67°02' E 013°47'9 9.2
2016-Feb-02 04:33N 67°09' E 014°02'9 9.2
2016-Feb-02 03:33N 67°17' E 014°14'9 9.1
2016-Feb-02 02:33N 67°25' E 014°27'95 8.5
2016-Feb-01 15:25N 68°45' E 016°42'15 2.3
2016-Feb-01 09:07N 68°57' E 017°05'15 9.4
2016-Feb-01 07:33N 69°07' E 017°37'10 9.7
2016-Feb-01 06:33N 69°11' E 018°01'248 7.5
2016-Jan-30 21:21N 70°57' E 028°59'7 9.5
2016-Jan-30 20:33N 70°53' E 029°19'11 9.4
2016-Jan-30 19:26N 70°48' E 029°46'5 0.2
2016-Jan-29 22:23N 70°43' E 029°50'8 9.8
2016-Jan-29 21:33N 70°49' E 029°34'  

Dump ship's entire track history